Time;durP1;ratioP1;P1;durP2;ratioP2;P2;SDS_P1;SDS_P2;PMS_P1;PMS_P2;Temp;Humidity;BMP_temperature;BMP_pressure;BME280_temperature;BME280_humidity;BME280_pressure;Samples;Min_cycle;Max_cycle;Signal;HPM_P1;HPM_P2
2022/02/24 00:01:50;;;;;;;20.95;10.50;;;;;;;2.98;86.04;99752.42;1675602;85;23288;-73
2022/02/24 00:04:18;;;;;;;25.50;10.50;;;;;;;2.97;86.07;99749.97;1675595;85;20990;-72
2022/02/24 00:06:47;;;;;;;23.62;10.40;;;;;;;2.97;86.16;99751.33;1675553;85;21479;-72
2022/02/24 00:09:17;;;;;;;21.35;11.08;;;;;;;2.98;86.13;99755.68;1656050;85;21113;-72
2022/02/24 00:11:43;;;;;;;26.00;11.25;;;;;;;2.94;86.04;99750.47;1656441;85;21031;-72
2022/02/24 00:14:11;;;;;;;33.70;11.43;;;;;;;2.92;85.98;99752.09;1675307;85;21050;-72
2022/02/24 00:16:42;;;;;;;28.87;12.80;;;;;;;2.90;85.99;99753.72;1672520;85;20994;-73
2022/02/24 00:19:09;;;;;;;23.80;12.18;;;;;;;2.92;86.09;99752.09;1656011;85;20975;-73
2022/02/24 00:21:37;;;;;;;25.72;11.43;;;;;;;2.92;86.09;99754.29;1634262;85;21578;-73
2022/02/24 00:24:49;;;;;;;23.42;12.20;;;;;;;2.95;86.14;99761.09;1633949;87;21029;-73
2022/02/24 00:27:18;;;;;;;29.80;12.82;;;;;;;2.97;86.14;99762.22;1556230;91;21078;-74
2022/02/24 00:29:46;;;;;;;22.65;11.03;;;;;;;2.98;86.03;99758.41;1600075;88;20978;-73
2022/02/24 00:32:17;;;;;;;23.70;12.03;;;;;;;2.99;86.12;99759.50;1630195;88;21017;-73
2022/02/24 00:34:47;;;;;;;19.92;11.33;;;;;;;3.00;86.07;99758.41;1630081;87;20989;-74
2022/02/24 00:37:20;;;;;;;28.12;12.23;;;;;;;3.00;85.99;99764.41;1629810;88;20911;-74
2022/02/24 00:39:51;;;;;;;26.42;11.78;;;;;;;2.99;85.96;99771.75;1630213;88;21103;-72
2022/02/24 00:42:18;;;;;;;23.57;11.78;;;;;;;2.98;85.91;99770.66;1609881;88;20978;-73
2022/02/24 00:44:49;;;;;;;20.60;10.65;;;;;;;2.98;85.97;99772.02;1626966;88;21466;-73
2022/02/24 00:47:15;;;;;;;25.50;12.65;;;;;;;2.98;86.07;99766.57;1630522;88;21068;-73
2022/02/24 00:49:44;;;;;;;18.15;10.75;;;;;;;2.99;86.11;99773.64;1630037;88;20998;-73
2022/02/24 00:52:11;;;;;;;22.82;10.48;;;;;;;3.00;86.12;99778.02;1630422;88;21101;-72
2022/02/24 00:54:48;;;;;;;24.25;11.85;;;;;;;3.02;86.05;99781.31;1643385;84;21423;-74
2022/02/24 00:57:16;;;;;;;23.35;11.88;;;;;;;3.03;86.11;99784.30;1658467;86;21000;-74
2022/02/24 00:59:43;;;;;;;23.90;12.25;;;;;;;3.03;86.23;99782.41;1658536;86;20955;-73
2022/02/24 01:02:12;;;;;;;25.40;11.65;;;;;;;3.04;86.18;99788.65;1638026;86;21010;-73
2022/02/24 01:04:42;;;;;;;24.18;11.93;;;;;;;3.03;86.21;99789.75;1658495;86;21542;-74
2022/02/24 01:07:12;;;;;;;22.75;11.70;;;;;;;3.02;86.16;99797.65;1658390;86;20955;-73
2022/02/24 01:09:39;;;;;;;21.75;11.63;;;;;;;2.99;86.16;99794.89;1658672;86;20996;-73
2022/02/24 01:12:06;;;;;;;30.20;11.88;;;;;;;2.99;86.16;99792.70;1658770;86;20972;-74
2022/02/24 01:14:36;;;;;;;24.55;11.12;;;;;;;2.99;86.22;99797.61;1658552;86;20935;-74
2022/02/24 01:17:10;;;;;;;22.67;11.10;;;;;;;3.00;86.13;99797.08;1658765;86;20995;-75
2022/02/24 01:19:37;;;;;;;24.95;12.28;;;;;;;2.98;86.03;99795.16;1658481;86;20967;-74
2022/02/24 01:22:06;;;;;;;24.40;12.33;;;;;;;2.97;86.20;99796.25;1685890;85;20993;-72
2022/02/24 01:24:32;;;;;;;26.95;14.23;;;;;;;2.97;86.33;99792.17;1685981;85;20960;-74
2022/02/24 01:27:03;;;;;;;27.65;13.35;;;;;;;2.97;86.44;99792.97;1682163;85;21012;-73
2022/02/24 01:29:33;;;;;;;31.80;13.98;;;;;;;2.97;86.58;99794.89;1689093;85;21529;-73
2022/02/24 01:32:05;;;;;;;37.63;14.47;;;;;;;2.92;86.55;99785.59;1690207;84;20952;-73
2022/02/24 01:34:37;;;;;;;30.45;15.38;;;;;;;2.92;86.55;99785.59;1690175;85;21353;-73
2022/02/24 01:37:05;;;;;;;35.28;15.93;;;;;;;2.94;86.47;99791.30;1690526;85;20960;-71
2022/02/24 01:39:38;;;;;;;35.35;16.15;;;;;;;2.92;86.47;99791.04;1687086;85;20888;-73
2022/02/24 01:42:08;;;;;;;35.25;15.98;;;;;;;2.94;86.45;99794.03;1690572;85;21595;-73
2022/02/24 01:44:43;;;;;;;32.40;15.65;;;;;;;2.92;86.36;99795.66;1689885;84;20985;-73
2022/02/24 01:47:12;;;;;;;36.68;16.97;;;;;;;2.91;86.36;99794.85;1690649;85;21046;-73
2022/02/24 01:49:42;;;;;;;35.20;17.42;;;;;;;2.91;86.36;99800.30;1690305;85;20893;-73
2022/02/24 01:52:12;;;;;;;33.33;16.90;;;;;;;2.89;86.38;99804.34;1689684;84;21024;-73
2022/02/24 01:54:48;;;;;;;32.80;17.70;;;;;;;2.86;86.38;99802.16;1694479;84;20924;-73
2022/02/24 01:57:18;;;;;;;33.85;17.62;;;;;;;2.83;86.47;99804.88;1694870;84;20967;-72
2022/02/24 01:59:46;;;;;;;35.70;16.97;;;;;;;2.77;86.54;99805.89;1694954;84;20979;-73
2022/02/24 02:02:18;;;;;;;33.60;15.70;;;;;;;2.77;86.84;99811.34;1660321;86;20956;-74
2022/02/24 02:04:44;;;;;;;28.27;14.87;;;;;;;2.78;87.01;99812.44;1697952;82;21000;-72
2022/02/24 02:07:11;;;;;;;28.75;13.48;;;;;;;2.80;87.22;99818.45;1694951;84;21630;-72
2022/02/24 02:09:40;;;;;;;29.87;13.48;;;;;;;2.82;87.34;99819.55;1691933;84;20888;-73
2022/02/24 02:12:08;;;;;;;29.27;16.07;;;;;;;2.84;87.38;99824.20;1675145;84;20948;-74
2022/02/24 02:14:38;;;;;;;34.55;17.92;;;;;;;2.87;87.51;99825.03;1695055;84;21445;-74
2022/02/24 02:17:06;;;;;;;51.18;22.22;;;;;;;2.91;87.70;99824.80;1695592;84;20962;-73
2022/02/24 02:22:13;;;;;;;35.73;20.60;;;;;;;2.94;87.81;99834.86;1691952;83;21030;-73
2022/02/24 02:24:58;;;;;;;35.55;18.98;;;;;;;2.94;87.89;99838.41;1695151;84;20987;-73
2022/02/24 02:27:28;;;;;;;32.23;17.82;;;;;;;2.94;87.87;99837.05;1695185;84;21020;-72
2022/02/24 02:29:59;;;;;;;35.25;18.27;;;;;;;2.94;87.84;99841.14;1694268;84;21492;-74
2022/02/24 02:32:32;;;;;;;35.73;18.65;;;;;;;2.94;87.84;99837.59;1688173;84;21456;-74
2022/02/24 02:35:06;;;;;;;35.15;19.27;;;;;;;2.93;87.90;99850.40;1697815;84;20900;-73
2022/02/24 02:37:39;;;;;;;41.30;19.60;;;;;;;2.93;87.98;99846.31;1687966;85;20991;-73
2022/02/24 02:40:09;;;;;;;37.33;19.32;;;;;;;2.91;88.02;99852.55;1688258;85;20936;-73
2022/02/24 02:42:41;;;;;;;36.20;17.40;;;;;;;2.90;88.23;99849.56;1689432;84;21043;-73
2022/02/24 02:45:08;;;;;;;35.60;18.90;;;;;;;2.91;88.26;99855.28;1688144;85;21102;-74
2022/02/24 02:47:37;;;;;;;32.15;18.65;;;;;;;2.89;88.32;99854.18;1697670;84;20920;-72
2022/02/24 02:50:07;;;;;;;32.38;18.10;;;;;;;2.89;88.41;99860.98;1698092;82;21521;-72
2022/02/24 03:03:27;;;;;;;32.90;15.85;;;;;;;2.75;89.00;99872.01;1693003;82;21393;-73
2022/02/24 03:05:53;;;;;;;30.95;15.40;;;;;;;2.73;89.13;99871.47;1697445;84;21023;-73
2022/02/24 03:08:25;;;;;;;30.00;15.18;;;;;;;2.72;89.19;99869.28;1684411;85;21043;-73
2022/02/24 03:10:56;;;;;;;24.00;13.35;;;;;;;2.72;89.27;99870.64;1687952;84;21008;-73
2022/02/24 03:13:27;;;;;;;36.15;15.18;;;;;;;2.71;89.24;99870.38;1687810;84;21476;-73
2022/02/24 03:16:00;;;;;;;30.15;15.45;;;;;;;2.71;89.29;99876.34;1697616;84;21483;-72
2022/02/24 03:18:31;;;;;;;25.60;14.10;;;;;;;2.72;89.45;99876.61;1687837;85;21000;-72
2022/02/24 03:20:57;;;;;;;28.87;13.13;;;;;;;2.74;89.62;99881.27;1687914;85;20947;-72
2022/02/24 03:23:26;;;;;;;23.42;12.07;;;;;;;2.76;89.68;99884.00;1687980;85;20904;-72
2022/02/24 03:25:52;;;;;;;32.10;14.83;;;;;;;2.78;89.82;99885.13;1697422;84;21007;-73
2022/02/24 03:28:21;;;;;;;39.08;15.48;;;;;;;2.82;89.94;99889.48;1697527;84;21412;-74
2022/02/24 03:30:50;;;;;;;41.35;15.95;;;;;;;2.82;89.72;99893.56;1659226;85;20881;-73
2022/02/24 03:33:19;;;;;;;43.17;17.02;;;;;;;2.84;89.78;99893.61;1685185;84;20940;-73
2022/02/24 03:35:51;;;;;;;42.40;16.57;;;;;;;2.85;89.72;99887.63;1658873;85;20924;-73
2022/02/24 03:38:21;;;;;;;37.53;15.72;;;;;;;2.86;89.72;99892.81;1685299;84;21119;-73
2022/02/24 03:40:47;;;;;;;35.20;15.18;;;;;;;2.89;89.80;99895.55;1685312;85;20949;-73
2022/02/24 03:43:14;;;;;;;33.80;15.23;;;;;;;2.91;89.76;99894.75;1685491;85;20936;-72
2022/02/24 03:45:48;;;;;;;25.82;12.70;;;;;;;2.88;89.48;99893.91;1675219;85;21504;-72
2022/02/24 03:48:16;;;;;;;33.13;14.90;;;;;;;2.85;89.43;99889.80;1685534;84;21492;-73
2022/02/24 03:50:51;;;;;;;25.50;13.95;;;;;;;2.85;89.48;99892.52;1644630;86;20906;-72
2022/02/24 03:53:20;;;;;;;37.55;15.03;;;;;;;2.84;89.66;99895.50;1622925;88;21058;-73
2022/02/24 03:55:46;;;;;;;27.25;13.98;;;;;;;2.86;89.73;99894.70;1680222;85;21417;-73
2022/02/24 03:58:17;;;;;;;28.67;13.90;;;;;;;2.86;89.59;99892.81;1679754;85;21058;-73
2022/02/24 04:00:45;;;;;;;25.70;13.58;;;;;;;2.87;89.44;99893.08;1685521;85;20947;-73
2022/02/24 04:03:17;;;;;;;33.33;14.53;;;;;;;2.85;89.24;99889.80;1685282;85;21518;-72
2022/02/24 04:05:44;;;;;;;27.98;15.58;;;;;;;2.84;89.14;99894.97;1684564;85;21164;-74
2022/02/24 04:08:23;;;;;;;29.20;15.55;;;;;;;2.81;89.22;99895.48;1685226;85;20900;-71
2022/02/24 04:10:51;;;;;;;33.05;14.87;;;;;;;2.80;89.31;99895.19;1685523;85;20987;-73
2022/02/24 04:13:22;;;;;;;27.82;13.20;;;;;;;2.75;89.37;99901.41;1658529;85;21023;-73
2022/02/24 04:15:56;;;;;;;30.48;15.85;;;;;;;2.73;89.54;99905.48;1685278;85;21447;-74
2022/02/24 04:18:22;;;;;;;29.77;15.88;;;;;;;2.75;89.89;99914.20;1685170;85;28067;-72
2022/02/24 04:20:52;;;;;;;34.25;15.85;;;;;;;2.78;90.11;99919.14;1681947;85;21123;-73
2022/02/24 04:23:18;;;;;;;34.73;16.02;;;;;;;2.80;90.16;99926.49;1685146;84;21470;-74
2022/02/24 04:25:49;;;;;;;32.70;16.27;;;;;;;2.81;90.21;99928.16;1623455;87;21120;-72
2022/02/24 04:28:15;;;;;;;33.53;17.92;;;;;;;2.82;90.28;99928.42;1679136;85;21126;-73
2022/02/24 04:30:46;;;;;;;32.98;17.40;;;;;;;2.86;90.38;99935.54;1677789;83;21485;-74
2022/02/24 04:37:01;;;;;;;31.60;15.78;;;;;;;2.91;90.52;99943.75;1712866;83;20992;-71
2022/02/24 04:39:33;;;;;;;29.95;15.78;;;;;;;2.95;90.48;99950.30;1712817;83;21568;-73
2022/02/24 04:42:14;;;;;;;28.15;15.23;;;;;;;2.96;90.52;99956.05;1712777;83;21055;-73
2022/02/24 04:44:43;;;;;;;33.50;16.95;;;;;;;2.97;90.44;99959.61;1712437;83;20976;-73
2022/02/24 04:47:14;;;;;;;26.45;15.53;;;;;;;2.98;90.42;99963.96;1707839;83;21056;-73
2022/02/24 04:49:42;;;;;;;30.70;16.35;;;;;;;2.98;90.41;99969.41;1712878;83;21009;-72
2022/02/24 04:52:14;;;;;;;29.35;17.27;;;;;;;2.98;90.42;99977.05;1684870;83;20897;-73
2022/02/24 04:54:44;;;;;;;28.02;17.12;;;;;;;2.98;90.42;99977.05;1712882;83;21505;-73
2022/02/24 04:57:20;;;;;;;23.87;15.45;;;;;;;2.97;90.33;99980.83;1707924;83;20988;-73
2022/02/24 04:59:46;;;;;;;25.88;15.50;;;;;;;2.96;90.24;99981.09;1685521;83;20993;-70
2022/02/24 05:02:12;;;;;;;26.57;15.78;;;;;;;2.92;90.28;99993.86;1712779;82;20933;-74
2022/02/24 05:04:39;;;;;;;23.35;13.90;;;;;;;2.89;90.15;99994.37;1712814;83;21485;-72
2022/02/24 05:07:06;;;;;;;28.42;15.05;;;;;;;2.89;90.19;99996.27;1712758;83;21607;-72
2022/02/24 05:09:35;;;;;;;32.55;14.70;;;;;;;2.88;90.19;99998.16;1712496;83;21003;-72
2022/02/24 05:12:02;;;;;;;25.95;14.65;;;;;;;2.90;90.19;100003.37;1712569;83;21019;-74
2022/02/24 05:14:42;;;;;;;26.45;13.45;;;;;;;2.91;90.26;100004.48;1712663;83;20951;-73
2022/02/24 05:17:11;;;;;;;30.45;14.35;;;;;;;2.94;90.29;100014.55;1709728;83;21552;-71
2022/02/24 05:19:40;;;;;;;24.18;15.00;;;;;;;2.96;90.30;100013.76;1712467;83;21150;-71
2022/02/24 05:22:07;;;;;;;31.07;15.18;;;;;;;2.97;90.34;100020.30;1683319;83;21501;-70
2022/02/24 05:24:35;;;;;;;27.98;15.35;;;;;;;2.98;90.26;100021.14;1678774;85;20997;-72
2022/02/24 05:27:07;;;;;;;27.55;14.78;;;;;;;2.99;90.35;100027.69;1666764;86;20932;-71
2022/02/24 05:29:34;;;;;;;23.42;14.73;;;;;;;3.00;90.35;100028.52;1677525;84;21065;-73
2022/02/24 05:32:05;;;;;;;30.80;16.75;;;;;;;3.00;90.19;100035.33;1679885;84;21885;-73
2022/02/24 05:34:45;;;;;;;29.67;17.48;;;;;;;2.98;90.18;100031.50;1743378;82;20992;-72
2022/02/24 05:37:29;;;;;;;33.90;17.82;;;;;;;2.98;90.27;100036.11;1745879;81;20890;-73
2022/02/24 05:39:57;;;;;;;46.77;22.37;;;;;;;2.98;90.29;100051.92;1745370;81;20918;-71
2022/02/24 05:42:30;;;;;;;37.70;21.77;;;;;;;3.01;90.38;100050.56;1745986;80;20969;-72
2022/02/24 05:45:01;;;;;;;38.87;20.87;;;;;;;3.03;90.46;100057.42;1746210;82;21549;-72
2022/02/24 05:47:29;;;;;;;37.48;19.80;;;;;;;3.06;90.43;100064.23;1746056;80;20958;-72
2022/02/24 05:49:55;;;;;;;35.13;19.37;;;;;;;3.07;90.29;100066.43;1746511;82;21026;-73
2022/02/24 05:52:23;;;;;;;33.58;19.65;;;;;;;3.01;90.16;100069.62;1746223;82;21518;-72
2022/02/24 05:54:50;;;;;;;30.72;17.35;;;;;;;2.98;90.30;100072.87;1746133;81;21620;-72
2022/02/24 05:57:19;;;;;;;31.10;16.90;;;;;;;2.96;90.58;100073.12;1745738;82;21134;-74
2022/02/24 05:59:46;;;;;;;29.70;16.90;;;;;;;2.97;90.88;100078.84;1746584;80;21387;-75
2022/02/24 06:02:14;;;;;;;31.33;17.35;;;;;;;3.00;91.05;100091.94;1746391;81;21034;-73
2022/02/24 06:04:45;;;;;;;34.60;17.92;;;;;;;3.03;91.03;100096.07;1746761;82;21483;-73
2022/02/24 06:07:17;;;;;;;26.62;15.90;;;;;;;3.03;91.12;100101.52;1752511;80;20954;-73
2022/02/24 06:09:53;;;;;;;30.62;18.15;;;;;;;3.03;91.16;100106.96;1743263;82;20879;-74
2022/02/24 06:12:19;;;;;;;31.50;18.67;;;;;;;3.01;91.12;100107.75;1746254;81;21459;-74
2022/02/24 06:14:49;;;;;;;36.00;18.95;;;;;;;3.00;91.33;100109.64;1746243;82;20995;-73
2022/02/24 06:17:26;;;;;;;34.33;18.42;;;;;;;3.02;91.51;100118.38;1743578;80;21021;-73
2022/02/24 06:19:55;;;;;;;35.25;18.62;;;;;;;3.02;91.59;100112.94;1746398;82;20902;-72
2022/02/24 06:22:22;;;;;;;34.35;18.02;;;;;;;3.04;91.71;100122.21;1746330;82;21549;-73
2022/02/24 06:24:53;;;;;;;28.17;17.05;;;;;;;3.04;91.69;100124.94;1727479;82;21002;-72
2022/02/24 07:02:30;;;;;;;24.32;14.65;;;;;;;2.83;92.52;100153.83;1615585;87;20970;-73
2022/02/24 07:04:58;;;;;;;27.95;15.13;;;;;;;2.84;92.76;100158.18;1617780;88;21010;-73
2022/02/24 07:07:26;;;;;;;26.73;14.38;;;;;;;2.84;92.73;100159.02;1655100;84;21083;-72
2022/02/24 07:09:59;;;;;;;22.50;14.20;;;;;;;2.87;92.90;100165.84;1673249;85;21059;-72
2022/02/24 07:12:32;;;;;;;28.75;17.75;;;;;;;2.82;92.68;100169.33;1695386;84;21547;-72
2022/02/24 07:15:05;;;;;;;28.75;15.50;;;;;;;2.84;93.18;100171.80;1691266;84;21004;-74
2022/02/24 07:17:34;;;;;;;25.17;14.58;;;;;;;2.89;93.43;100174.05;1695957;84;20992;-73
2022/02/24 07:20:17;;;;;;;20.32;13.32;;;;;;;2.90;93.03;100177.61;1695853;84;20849;-73
2022/02/24 07:22:45;;;;;;;18.75;13.75;;;;;;;2.88;93.07;100177.84;1696159;84;20948;-71
2022/02/24 07:25:13;;;;;;;28.35;15.48;;;;;;;2.90;93.12;100179.77;1695794;84;21083;-75
2022/02/24 07:27:40;;;;;;;29.00;15.35;;;;;;;2.95;93.22;100186.37;1695678;84;21011;-72
2022/02/24 08:30:17;;;;;;;19.15;12.68;;;;;;;3.03;95.58;100252.12;1754485;80;21042;-74
2022/02/24 08:32:43;;;;;;;17.12;11.00;;;;;;;2.97;95.54;100245.49;1726058;83;21555;-75
2022/02/24 08:35:12;;;;;;;23.62;11.93;;;;;;;2.99;95.47;100250.95;1726141;83;21023;-74
2022/02/24 08:37:38;;;;;;;14.85;10.05;;;;;;;2.98;95.19;100257.48;1779588;80;21127;-74
2022/02/24 08:40:06;;;;;;;17.67;10.03;;;;;;;2.92;95.08;100250.30;1779388;80;20860;-75
2022/02/24 08:42:33;;;;;;;14.98;9.55;;;;;;;2.90;95.24;100257.92;1779301;80;20943;-73
2022/02/24 08:45:03;;;;;;;14.43;8.98;;;;;;;2.99;95.56;100254.20;1746857;82;21093;-73
2022/02/24 09:11:47;;;;;;;16.77;10.03;;;;;;;3.36;92.80;100257.69;1693542;84;21124;-74
2022/02/24 09:14:18;;;;;;;17.73;11.20;;;;;;;3.44;92.72;100267.34;1718583;83;20908;-75
2022/02/24 09:16:45;;;;;;;17.50;10.58;;;;;;;3.51;92.73;100257.60;1755843;81;21029;-74
2022/02/24 09:19:12;;;;;;;16.32;10.10;;;;;;;3.58;92.45;100260.97;1758894;81;20919;-73
2022/02/24 09:21:39;;;;;;;15.88;9.08;;;;;;;3.65;92.09;100263.50;1758966;81;21596;-74
2022/02/24 09:24:15;;;;;;;14.98;9.98;;;;;;;3.69;91.61;100259.16;1758571;81;20922;-73
2022/02/24 09:26:47;;;;;;;13.55;9.20;;;;;;;3.76;91.39;100258.43;1756921;81;21439;-71
2022/02/24 09:29:17;;;;;;;15.20;9.60;;;;;;;3.85;91.45;100260.70;1752160;80;20928;-74
2022/02/24 09:31:50;;;;;;;10.95;7.87;;;;;;;3.93;91.20;100255.31;1737592;82;20975;-73
2022/02/24 09:34:16;;;;;;;12.82;8.78;;;;;;;4.03;90.70;100257.34;1709480;83;21152;-75
2022/02/24 09:36:45;;;;;;;12.78;9.20;;;;;;;4.08;89.87;100259.55;1708081;82;20935;-74
2022/02/24 09:39:13;;;;;;;14.83;9.28;;;;;;;4.04;88.34;100262.53;1734971;82;20987;-74
2022/02/24 09:41:40;;;;;;;12.23;8.75;;;;;;;3.94;87.61;100256.97;1735408;82;20983;-73
2022/02/24 09:44:09;;;;;;;15.93;9.95;;;;;;;3.91;87.90;100260.22;1735965;82;20872;-75
2022/02/24 09:51:05;;;;;;;15.20;9.73;;;;;;;3.99;88.15;100257.83;1742662;82;20876;-74
2022/02/24 09:53:34;;;;;;;11.97;8.35;;;;;;;4.00;87.49;100259.49;1680125;85;20985;-73
2022/02/24 09:56:02;;;;;;;13.83;8.58;;;;;;;4.00;87.48;100258.13;1733878;82;21020;-75
2022/02/24 09:58:31;;;;;;;15.43;9.65;;;;;;;3.99;86.14;100259.75;1734180;82;20995;-73
2022/02/24 10:01:12;;;;;;;13.40;8.55;;;;;;;3.85;85.69;100262.89;1709149;82;21070;-73
2022/02/24 10:03:45;;;;;;;18.17;9.93;;;;;;;3.85;86.29;100262.06;1711036;82;20918;-74
2022/02/24 10:06:13;;;;;;;14.10;9.28;;;;;;;3.87;86.16;100265.36;1742226;82;21442;-71
2022/02/24 10:08:53;;;;;;;16.52;9.68;;;;;;;3.91;86.36;100262.95;1742425;82;20915;-74
2022/02/24 10:11:28;;;;;;;15.90;9.53;;;;;;;3.92;86.14;100257.23;1740624;80;21053;-73
2022/02/24 10:14:11;;;;;;;14.60;9.70;;;;;;;3.86;85.71;100260.44;1741261;82;21010;-71
2022/02/24 10:17:03;;;;;;;13.48;9.73;;;;;;;3.81;85.73;100262.28;1742059;82;20982;-74
2022/02/24 10:19:47;;;;;;;14.70;9.23;;;;;;;3.79;86.03;100254.91;1742109;82;20994;-72
2022/02/24 10:22:25;;;;;;;13.13;9.05;;;;;;;3.80;85.88;100265.56;1675210;84;21502;-74
2022/02/24 10:25:15;;;;;;;13.83;9.33;;;;;;;3.82;86.14;100259.84;1734361;82;20977;-71
2022/02/24 10:27:42;;;;;;;15.65;10.08;;;;;;;3.85;85.87;100262.89;1742027;81;21082;-73
2022/02/24 10:30:16;;;;;;;16.00;10.53;;;;;;;3.79;85.15;100259.81;1750946;81;20883;-74
2022/02/24 10:32:59;;;;;;;15.35;9.15;;;;;;;3.75;85.11;100259.49;1758605;81;20942;-73
2022/02/24 10:56:49;;;;;;;15.28;10.20;;;;;;;3.71;84.88;100249.36;1726616;83;20956;-71
2022/02/24 10:59:32;;;;;;;14.58;10.28;;;;;;;3.68;84.99;100253.44;1719869;83;21496;-72
2022/02/24 11:02:01;;;;;;;16.73;10.65;;;;;;;3.70;85.01;100254.55;1726657;83;20935;-73
2022/02/24 11:32:13;;;;;;;11.43;8.50;;;;;;;3.80;83.40;100243.75;1585150;89;21014;-73
2022/02/24 11:35:10;;;;;;;15.08;9.28;;;;;;;3.88;83.40;100241.09;1609153;84;21043;-72
2022/02/24 11:37:46;;;;;;;16.15;9.15;;;;;;;3.95;82.90;100243.08;1696955;84;21004;-74
2022/02/24 11:40:23;;;;;;;16.70;10.50;;;;;;;4.01;82.96;100238.48;1697260;84;21059;-74
2022/02/24 11:43:25;;;;;;;18.27;10.25;;;;;;;4.09;82.89;100237.20;1697067;84;21070;-74
2022/02/24 11:45:55;;;;;;;21.37;10.60;;;;;;;4.16;82.89;100241.91;1697050;84;21746;-75
2022/02/24 16:06:04;;;;;;;35.88;19.95;;;;;;;4.00;76.77;100247.22;1698831;82;20992;-73
2022/02/24 16:08:32;;;;;;;35.48;19.23;;;;;;;3.98;76.83;100247.17;1753079;81;21466;-72
2022/02/24 16:11:00;;;;;;;34.48;19.12;;;;;;;3.94;76.94;100241.41;1752989;81;20835;-73
2022/02/24 16:13:27;;;;;;;42.70;20.57;;;;;;;3.95;76.93;100251.79;1753186;81;20875;-73
2022/02/24 16:15:54;;;;;;;36.35;19.85;;;;;;;3.93;76.91;100244.40;1753068;81;20986;-75
2022/02/24 16:18:23;;;;;;;36.03;21.00;;;;;;;3.91;77.05;100250.67;1753000;81;21081;-72
2022/02/24 16:20:55;;;;;;;33.25;19.65;;;;;;;3.89;77.11;100247.64;1753036;81;20935;-73
2022/02/24 16:23:33;;;;;;;30.23;16.93;;;;;;;3.90;77.11;100255.30;1752984;81;20958;-73
2022/02/24 16:26:07;;;;;;;37.65;20.02;;;;;;;3.89;77.05;100257.19;1753051;81;21033;-71
2022/02/24 16:28:42;;;;;;;38.78;21.62;;;;;;;3.91;77.16;100258.86;1752888;80;20991;-75
2022/02/24 16:31:29;;;;;;;44.05;25.25;;;;;;;3.91;77.16;100249.31;1752952;81;21536;-74
2022/02/24 16:33:58;;;;;;;49.93;23.42;;;;;;;3.91;77.19;100258.86;1752851;81;20859;-74
2022/02/24 16:36:30;;;;;;;47.03;23.83;;;;;;;3.89;77.08;100257.19;1752176;81;20914;-73
2022/02/24 17:02:15;;;;;;;60.60;29.18;;;;;;;3.77;78.16;100245.63;1752787;80;22106;-74
2022/02/24 17:04:56;;;;;;;49.42;26.95;;;;;;;3.74;78.26;100242.03;1752975;81;21413;-73
2022/02/24 17:07:30;;;;;;;49.38;28.50;;;;;;;3.72;78.46;100244.22;1761398;80;21454;-73
2022/02/24 17:09:59;;;;;;;42.93;24.80;;;;;;;3.69;78.61;100244.70;1769119;81;20974;-73
2022/02/24 17:12:28;;;;;;;43.17;23.50;;;;;;;3.69;78.72;100248.26;1769007;81;21003;-74
2022/02/24 17:14:59;;;;;;;51.50;27.65;;;;;;;3.69;78.96;100243.34;1765152;81;21130;-75
2022/02/24 17:17:31;;;;;;;51.42;26.97;;;;;;;3.69;79.29;100246.06;1769148;81;20906;-73
2022/02/24 17:19:59;;;;;;;49.05;26.82;;;;;;;3.70;79.67;100240.91;1769128;81;21050;-74
2022/02/24 17:22:27;;;;;;;43.80;26.02;;;;;;;3.70;79.96;100240.35;1769037;81;20955;-75
2022/02/24 17:25:00;;;;;;;45.10;25.85;;;;;;;3.70;80.31;100235.46;1769122;81;21065;-74
2022/02/24 17:27:26;;;;;;;49.75;27.22;;;;;;;3.71;80.69;100237.93;1768949;81;21548;-75
2022/02/24 17:29:53;;;;;;;52.90;28.40;;;;;;;3.72;80.93;100238.76;1769292;81;20938;-74
2022/02/24 17:32:24;;;;;;;51.23;27.55;;;;;;;3.71;81.10;100235.73;1768972;81;20970;-74
2022/02/24 17:34:54;;;;;;;49.93;26.30;;;;;;;3.72;81.27;100237.40;1769117;81;21495;-74
2022/02/24 17:37:25;;;;;;;48.50;26.25;;;;;;;3.73;81.43;100239.03;1738998;81;21026;-71
2022/02/24 17:39:52;;;;;;;48.20;26.45;;;;;;;3.73;81.58;100240.39;1769094;81;21092;-74
2022/02/24 17:42:19;;;;;;;48.35;25.62;;;;;;;3.74;81.74;100239.30;1739357;81;20875;-74
2022/02/24 17:44:47;;;;;;;54.77;27.80;;;;;;;3.75;81.90;100241.77;1767714;81;20970;-73
2022/02/24 17:47:19;;;;;;;50.52;26.73;;;;;;;3.76;82.06;100241.23;1769037;81;20939;-72
2022/02/24 17:49:50;;;;;;;57.15;29.37;;;;;;;3.76;82.22;100243.44;1769435;81;20874;-72
2022/02/24 17:52:16;;;;;;;44.50;26.75;;;;;;;3.75;82.37;100239.05;1739231;81;22126;-71
2022/02/24 17:58:42;;;;;;;40.43;23.22;;;;;;;3.69;82.74;100237.88;1769383;81;21475;-73
2022/02/24 18:01:10;;;;;;;42.80;21.93;;;;;;;3.65;82.99;100235.67;1738924;81;20962;-72
2022/02/24 19:06:22;;;;;;;42.30;23.47;;;;;;;3.57;85.02;100218.42;1829257;78;21761;-73
2022/02/24 19:08:49;;;;;;;44.63;23.62;;;;;;;3.51;85.11;100221.62;1786639;79;20967;-73
2022/02/24 19:11:18;;;;;;;36.33;23.32;;;;;;;3.51;85.19;100224.34;1786052;80;21157;-72
2022/02/24 19:13:49;;;;;;;37.35;20.68;;;;;;;3.51;85.20;100222.98;1785436;77;20966;-71
2022/02/24 19:16:18;;;;;;;36.23;21.82;;;;;;;3.50;85.14;100217.79;1800289;77;20888;-72
2022/02/24 19:18:44;;;;;;;36.65;21.17;;;;;;;3.48;85.09;100218.61;1800418;77;21437;-72
2022/02/24 19:21:11;;;;;;;34.83;20.65;;;;;;;3.47;85.06;100212.85;1737156;80;20950;-72
2022/02/24 19:23:42;;;;;;;36.05;20.55;;;;;;;3.45;85.14;100204.11;1768293;79;21256;-72
2022/02/24 19:26:09;;;;;;;42.48;21.82;;;;;;;3.48;85.19;100206.34;1793930;79;21488;-72
2022/02/24 19:28:37;;;;;;;42.48;21.68;;;;;;;3.48;85.14;100207.70;1760985;79;20911;-72
2022/02/24 19:31:08;;;;;;;43.73;22.95;;;;;;;3.47;85.10;100208.23;1788547;79;21057;-72
2022/02/24 19:33:35;;;;;;;38.17;21.68;;;;;;;3.47;85.20;100206.87;1786290;80;20884;-73
2022/02/24 19:36:02;;;;;;;43.15;24.43;;;;;;;3.48;85.25;100202.25;1789353;77;22215;-72
2022/02/24 19:38:32;;;;;;;48.70;28.65;;;;;;;3.50;85.27;100203.63;1790111;77;21505;-72
2022/02/24 19:40:59;;;;;;;45.98;27.77;;;;;;;3.50;85.25;100206.36;1781690;79;21510;-71
2022/02/24 19:43:29;;;;;;;52.08;29.98;;;;;;;3.49;85.26;100202.00;1788630;77;21065;-72
2022/02/24 19:45:58;;;;;;;57.85;31.90;;;;;;;3.50;85.26;100201.44;1792018;77;21026;-72
2022/02/24 19:48:26;;;;;;;56.58;31.05;;;;;;;3.49;85.21;100200.63;1795704;77;21108;-71
2022/02/24 19:50:54;;;;;;;53.42;29.98;;;;;;;3.48;85.16;100199.53;1803381;79;20957;-70
2022/02/24 19:53:24;;;;;;;50.63;29.40;;;;;;;3.42;85.18;100198.64;1790378;77;20982;-72
2022/02/24 19:55:53;;;;;;;54.65;31.65;;;;;;;3.43;85.46;100195.38;1794977;79;20914;-72
2022/02/24 19:58:28;;;;;;;60.52;31.48;;;;;;;3.44;85.50;100194.30;1800361;77;21044;-72
2022/02/24 20:00:56;;;;;;;61.83;34.48;;;;;;;3.45;85.66;100195.93;1789409;79;20970;-73
2022/02/24 20:03:26;;;;;;;59.93;32.98;;;;;;;3.46;85.74;100190.78;1812498;78;20912;-71
2022/02/24 20:05:53;;;;;;;63.28;35.10;;;;;;;3.43;85.67;100192.66;1750962;81;21024;-73
2022/02/24 20:08:21;;;;;;;69.12;35.35;;;;;;;3.38;85.87;100184.70;1719325;81;20948;-72
2022/02/24 20:10:51;;;;;;;60.60;35.68;;;;;;;3.37;86.05;100181.70;1777248;79;20981;-73
2022/02/24 20:13:25;;;;;;;;;;;;;;;3.35;86.10;100174.84;1781742;80;20934;-73
2022/02/24 20:15:53;;;;;;;70.55;35.55;;;;;;;3.34;86.29;100180.86;1806499;79;20157;-72
2022/02/24 20:18:22;;;;;;;75.37;37.75;;;;;;;3.29;86.32;100174.79;1791526;78;21448;-72
2022/02/24 20:20:55;;;;;;;75.65;38.10;;;;;;;3.25;86.55;100177.75;1751123;80;20995;-72
2022/02/24 20:23:24;;;;;;;74.95;38.33;;;;;;;3.25;86.70;100178.28;1818756;77;20964;-73
2022/02/24 20:25:53;;;;;;;72.55;38.20;;;;;;;3.25;86.90;100183.20;1750388;81;21047;-73
2022/02/24 20:28:21;;;;;;;72.95;37.65;;;;;;;3.26;87.14;100179.92;1793186;79;21545;-73
2022/02/24 20:30:50;;;;;;;78.90;37.65;;;;;;;3.27;87.24;100183.78;1792121;79;21490;-74
2022/02/24 20:33:19;;;;;;;74.40;38.88;;;;;;;3.25;87.25;100170.95;1794031;79;20917;-74
2022/02/24 20:35:47;;;;;;;69.60;36.40;;;;;;;3.25;87.44;100170.95;1786138;79;20861;-74